Tompkinsville, KY (42167)

8:35 AM CST on November 27, 2014 (GMT -0600)
Center Point Ky | Change Station
CLOSE
Current Station
Personal Weather Station
Location: Tompkinsville, KY
Elevation: 740 ft
Nearby Weather Stations

Elev 740 ft 36.72 °N, 85.51 °W | Updated 4 minutes ago

Overcast
Overcast
34.3 °F
Feels Like 32 °F
N
3.2
Wind Variable Wind from NW

Today
High -- | Low -- °F
--% Chance of Precip.
Yesterday
High -- | Low -- °F
Precip. -- in
6:32 AM 4:27 PM
Waxing Crescent, 30% visible
Pressure 30.32 in
Visibility 7.0 miles
Clouds Scattered Clouds 1400 ft
Overcast 2100 ft
Windchill 32 °F
Dew Point 33 °F
Humidity 94%
Rainfall 0.02 in
Snow Depth Not available.
UV 0 out of 12
Pollen .10 out of 12
Air Quality Not available.
Flu Activity Not available.
METAR KGLW 271415Z AUTO 31004KT 7SM SCT014 OVC021 01/00 A3032 RMK AO2 T00101002

More Conditions Fewer Conditions

Pressure 30.32 in
Visibility 7.0 miles
Clouds Scattered Clouds 1400 ft
Overcast 2100 ft
Windchill 32 °F
Dew Point 33 °F
Humidity 94%
Rainfall 0.02 in
Snow Depth Not available.
UV 0 out of 12
Pollen .10 out of 12
Air Quality Not available.
Flu Activity Not available.
METAR KGLW 271415Z AUTO 31004KT 7SM SCT014 OVC021 01/00 A3032 RMK AO2 T00101002

More Conditions Fewer Conditions

10-Day Weather Forecast

Almanac

Astronomy

Nov. 27, 2014 Rise Set
Actual Time
Civil Twilight
Nautical Twilight
Astronomical Twilight
Moon
Length of Visible Light
Length of Day
Tomorrow will be .
, % of the Moon is Illuminated

Today's Extremes

State Highs State Lows

Community

WunderPhotos

Upload Photos

1,774,005 photos uploaded!

WunderBlogs® & News

Nearby

Air Quality

  Air Quality AQ Index Pollutant
Not available.

Snow Depth

Station Depth Elevation

Earthquake Activity

City Distance Mag. Time & Date
Minimum magnitude displayed is 2.5.

Coastal Water Temperatures

Place Temperature

Nearby Weather Stations